Time;durP1;ratioP1;P1;durP2;ratioP2;P2;SDS_P1;SDS_P2;PMS_P1;PMS_P2;Temp;Humidity;BMP_temperature;BMP_pressure;BME280_temperature;BME280_humidity;BME280_pressure;Samples;Min_cycle;Max_cycle;Signal;HPM_P1;HPM_P2
2023/10/31 00:01:51;;;;;;;1.83;1.02;;;;;;;;;;4131824;28;20537;-63
2023/10/31 00:03:52;;;;;;;1.10;1.10;;;;;;;;;;4127570;28;20077;-63
2023/10/31 00:05:54;;;;;;;4.00;1.38;;;;;;;;;;4133509;28;20054;-63
2023/10/31 00:07:56;;;;;;;3.92;1.13;;;;;;;;;;4127898;28;20034;-63
2023/10/31 00:09:58;;;;;;;2.88;1.10;;;;;;;;;;4133815;28;20042;-64
2023/10/31 00:11:59;;;;;;;3.42;1.23;;;;;;;;;;4129278;28;20121;-64
2023/10/31 00:14:01;;;;;;;3.50;1.10;;;;;;;;;;4111015;28;20055;-64
2023/10/31 00:16:03;;;;;;;1.83;1.00;;;;;;;;;;4133799;28;20042;-63
2023/10/31 00:18:06;;;;;;;2.22;1.00;;;;;;;;;;4115426;28;20490;-64
2023/10/31 00:20:07;;;;;;;3.10;1.48;;;;;;;;;;4129546;28;20034;-64
2023/10/31 00:22:09;;;;;;;2.03;1.45;;;;;;;;;;4121981;28;20097;-64
2023/10/31 00:24:11;;;;;;;3.92;1.85;;;;;;;;;;4131771;28;20043;-64
2023/10/31 00:26:15;;;;;;;1.20;0.90;;;;;;;;;;4123975;28;20121;-65
2023/10/31 00:28:17;;;;;;;2.40;1.00;;;;;;;;;;4127954;28;20041;-64
2023/10/31 00:30:19;;;;;;;2.22;0.90;;;;;;;;;;4133239;28;20498;-65
2023/10/31 00:32:21;;;;;;;2.25;1.10;;;;;;;;;;4133606;28;20050;-64
2023/10/31 00:34:22;;;;;;;0.90;0.90;;;;;;;;;;4133484;28;20121;-65
2023/10/31 00:36:24;;;;;;;1.17;1.17;;;;;;;;;;4133525;28;20070;-64
2023/10/31 00:38:26;;;;;;;2.38;0.85;;;;;;;;;;4133130;28;20049;-64
2023/10/31 00:40:27;;;;;;;1.10;1.00;;;;;;;;;;4133458;28;20109;-65
2023/10/31 00:42:29;;;;;;;4.38;1.10;;;;;;;;;;4109774;28;20047;-64
2023/10/31 00:44:31;;;;;;;1.50;0.90;;;;;;;;;;4122053;28;20038;-65
2023/10/31 00:46:32;;;;;;;4.03;1.30;;;;;;;;;;4125827;28;20034;-64
2023/10/31 00:48:36;;;;;;;1.00;1.00;;;;;;;;;;4133141;28;20128;-65
2023/10/31 00:50:38;;;;;;;2.47;1.33;;;;;;;;;;4133289;28;20077;-65
2023/10/31 00:52:39;;;;;;;3.00;1.00;;;;;;;;;;4136083;28;20050;-64
2023/10/31 00:54:42;;;;;;;2.88;1.60;;;;;;;;;;4133061;28;20038;-64
2023/10/31 00:56:43;;;;;;;1.20;1.20;;;;;;;;;;4133299;28;20069;-65
2023/10/31 00:58:45;;;;;;;2.00;1.25;;;;;;;;;;4132899;28;20086;-64
2023/10/31 01:00:47;;;;;;;3.05;1.20;;;;;;;;;;4133084;28;20494;-65
2023/10/31 01:02:49;;;;;;;2.55;1.10;;;;;;;;;;4133033;28;20565;-64
2023/10/31 01:04:51;;;;;;;1.40;1.30;;;;;;;;;;4132788;28;20047;-64
2023/10/31 01:06:52;;;;;;;3.40;1.10;;;;;;;;;;4133015;28;20517;-64
2023/10/31 01:08:54;;;;;;;1.50;1.00;;;;;;;;;;4132744;28;20375;-65
2023/10/31 01:10:56;;;;;;;1.92;0.90;;;;;;;;;;4133057;28;20122;-64
2023/10/31 01:12:57;;;;;;;1.50;1.00;;;;;;;;;;4132771;28;20100;-65
2023/10/31 01:14:59;;;;;;;0.93;0.90;;;;;;;;;;4133032;28;20046;-65
2023/10/31 01:17:01;;;;;;;1.42;0.90;;;;;;;;;;4125965;28;20175;-64
2023/10/31 01:19:03;;;;;;;1.15;0.90;;;;;;;;;;4132863;28;20074;-65
2023/10/31 01:21:05;;;;;;;3.55;0.90;;;;;;;;;;4132865;28;20043;-65
2023/10/31 01:23:06;;;;;;;1.63;0.80;;;;;;;;;;4132696;28;20490;-66
2023/10/31 01:25:08;;;;;;;4.55;1.05;;;;;;;;;;4132285;28;20057;-65
2023/10/31 01:27:10;;;;;;;1.02;1.00;;;;;;;;;;4132743;28;20046;-65
2023/10/31 01:29:12;;;;;;;4.80;1.35;;;;;;;;;;4132318;28;20491;-65
2023/10/31 01:31:13;;;;;;;3.50;1.17;;;;;;;;;;4132439;28;20035;-64
2023/10/31 01:33:15;;;;;;;2.53;0.90;;;;;;;;;;4132714;28;20572;-64
2023/10/31 01:35:17;;;;;;;1.92;1.00;;;;;;;;;;4132567;28;20039;-65
2023/10/31 01:37:20;;;;;;;2.33;1.23;;;;;;;;;;4115039;28;20535;-65
2023/10/31 01:39:22;;;;;;;6.60;0.90;;;;;;;;;;4132325;28;20042;-64
2023/10/31 01:41:24;;;;;;;3.75;1.15;;;;;;;;;;4132474;28;20104;-64
2023/10/31 01:43:29;;;;;;;4.32;1.35;;;;;;;;;;4114884;28;20095;-65
2023/10/31 01:45:30;;;;;;;1.67;1.40;;;;;;;;;;4132238;28;20038;-65
2023/10/31 01:47:32;;;;;;;1.58;0.90;;;;;;;;;;4119871;28;20038;-65
2023/10/31 01:49:35;;;;;;;2.28;0.93;;;;;;;;;;4133989;28;20123;-64
2023/10/31 01:51:37;;;;;;;2.13;1.10;;;;;;;;;;4132275;28;20057;-65
2023/10/31 01:53:39;;;;;;;4.22;1.20;;;;;;;;;;4132109;28;20035;-64
2023/10/31 01:55:41;;;;;;;;;;;;;;;;;;4132545;28;20494;-65
2023/10/31 01:57:44;;;;;;;2.58;0.90;;;;;;;;;;4131383;28;19976;-64
2023/10/31 01:59:46;;;;;;;1.85;1.02;;;;;;;;;;4132202;28;20050;-64
2023/10/31 02:01:48;;;;;;;4.07;1.33;;;;;;;;;;4115168;28;20042;-63
2023/10/31 02:03:50;;;;;;;3.20;1.00;;;;;;;;;;4131904;28;20470;-63
2023/10/31 02:05:52;;;;;;;5.80;1.10;;;;;;;;;;4114155;28;20051;-63
2023/10/31 02:07:53;;;;;;;3.50;1.45;;;;;;;;;;4132090;28;20049;-63
2023/10/31 02:09:55;;;;;;;3.78;1.10;;;;;;;;;;4132009;28;20042;-64
2023/10/31 02:11:57;;;;;;;2.03;1.15;;;;;;;;;;4131940;28;20069;-64
2023/10/31 02:13:59;;;;;;;3.03;1.35;;;;;;;;;;4120575;28;20043;-64
2023/10/31 02:16:01;;;;;;;1.15;1.00;;;;;;;;;;4115740;28;20121;-64
2023/10/31 02:18:03;;;;;;;2.25;1.10;;;;;;;;;;4115867;28;20480;-63
2023/10/31 02:20:05;;;;;;;1.75;1.00;;;;;;;;;;4115967;28;20070;-65
2023/10/31 02:22:07;;;;;;;1.10;1.00;;;;;;;;;;4115696;28;20045;-64
2023/10/31 02:24:09;;;;;;;3.72;1.20;;;;;;;;;;4115860;28;20436;-64
2023/10/31 02:26:10;;;;;;;4.80;1.10;;;;;;;;;;4115761;28;20038;-64
2023/10/31 02:28:12;;;;;;;3.38;1.90;;;;;;;;;;4115820;28;20126;-64
2023/10/31 02:30:14;;;;;;;2.30;1.17;;;;;;;;;;4117888;28;20524;-64
2023/10/31 02:32:16;;;;;;;2.80;1.10;;;;;;;;;;4131590;28;20082;-63
2023/10/31 02:34:18;;;;;;;4.70;1.38;;;;;;;;;;4131819;28;20039;-64
2023/10/31 02:36:19;;;;;;;3.65;1.20;;;;;;;;;;4131807;28;20054;-64
2023/10/31 02:38:21;;;;;;;4.00;1.08;;;;;;;;;;4131588;28;20049;-64
2023/10/31 02:40:23;;;;;;;4.03;1.20;;;;;;;;;;4130779;28;20042;-64
2023/10/31 02:42:25;;;;;;;3.38;1.27;;;;;;;;;;4114620;28;20121;-63
2023/10/31 02:44:27;;;;;;;5.03;1.63;;;;;;;;;;4134457;28;20038;-63
2023/10/31 02:46:28;;;;;;;5.38;1.48;;;;;;;;;;4131573;28;20426;-64
2023/10/31 02:48:37;;;;;;;3.88;1.50;;;;;;;;;;4112977;28;20133;-63
2023/10/31 02:50:39;;;;;;;3.90;1.25;;;;;;;;;;4131617;28;20445;-64
2023/10/31 02:52:41;;;;;;;4.28;1.45;;;;;;;;;;4131681;28;20058;-63
2023/10/31 02:54:43;;;;;;;1.65;1.30;;;;;;;;;;4131370;28;20603;-64
2023/10/31 02:56:44;;;;;;;1.95;1.27;;;;;;;;;;4131700;28;20047;-63
2023/10/31 02:58:46;;;;;;;5.28;1.70;;;;;;;;;;4131397;28;20072;-64
2023/10/31 03:00:48;;;;;;;4.40;1.50;;;;;;;;;;4131411;28;20042;-63
2023/10/31 03:02:49;;;;;;;4.68;1.55;;;;;;;;;;4131479;28;20429;-64
2023/10/31 03:04:51;;;;;;;4.72;1.67;;;;;;;;;;4131332;28;20101;-63
2023/10/31 03:06:53;;;;;;;4.88;1.55;;;;;;;;;;4131630;28;20038;-64
2023/10/31 03:08:55;;;;;;;7.63;1.70;;;;;;;;;;4130873;28;20035;-64
2023/10/31 03:10:56;;;;;;;6.63;1.90;;;;;;;;;;4115519;28;20074;-63
2023/10/31 03:12:59;;;;;;;2.43;1.23;;;;;;;;;;4115433;28;20042;-63
2023/10/31 03:15:02;;;;;;;4.55;1.55;;;;;;;;;;4115414;28;20282;-64
2023/10/31 03:17:04;;;;;;;6.97;1.48;;;;;;;;;;4115307;28;20039;-64
2023/10/31 03:19:06;;;;;;;7.97;1.93;;;;;;;;;;4115141;28;20042;-64
2023/10/31 03:21:08;;;;;;;4.50;1.50;;;;;;;;;;4115135;28;20790;-64
2023/10/31 03:23:09;;;;;;;2.57;2.13;;;;;;;;;;4115076;28;20038;-64
2023/10/31 03:25:11;;;;;;;5.80;2.72;;;;;;;;;;4115252;28;20047;-64
2023/10/31 03:27:13;;;;;;;5.10;1.83;;;;;;;;;;4115339;28;20435;-64
2023/10/31 03:29:15;;;;;;;6.07;1.42;;;;;;;;;;4115310;28;20282;-64
2023/10/31 03:31:17;;;;;;;11.55;3.30;;;;;;;;;;4115366;28;20046;-65
2023/10/31 03:33:19;;;;;;;5.13;1.52;;;;;;;;;;4115290;28;20049;-63
2023/10/31 03:35:21;;;;;;;8.25;2.45;;;;;;;;;;4115069;28;20058;-63
2023/10/31 03:37:22;;;;;;;3.22;1.83;;;;;;;;;;4115207;28;20462;-63
2023/10/31 03:39:24;;;;;;;10.32;2.67;;;;;;;;;;4114800;28;20129;-63
2023/10/31 03:41:26;;;;;;;4.30;1.75;;;;;;;;;;4127731;28;20125;-63
2023/10/31 03:43:27;;;;;;;6.63;2.42;;;;;;;;;;4113695;28;20043;-63
2023/10/31 03:45:29;;;;;;;5.40;1.60;;;;;;;;;;4131238;28;20047;-63
2023/10/31 03:47:31;;;;;;;4.80;1.38;;;;;;;;;;4113561;28;20047;-64
2023/10/31 03:49:32;;;;;;;7.10;2.38;;;;;;;;;;4115097;28;20050;-64
2023/10/31 03:51:34;;;;;;;2.92;2.05;;;;;;;;;;4115928;28;20472;-63
2023/10/31 03:53:36;;;;;;;2.45;1.67;;;;;;;;;;4118068;28;20042;-64
2023/10/31 03:55:38;;;;;;;4.22;1.20;;;;;;;;;;4117802;28;20130;-65
2023/10/31 03:57:39;;;;;;;6.18;1.10;;;;;;;;;;4130275;28;20125;-65
2023/10/31 03:59:41;;;;;;;1.45;1.02;;;;;;;;;;4133875;28;20046;-65
2023/10/31 04:01:43;;;;;;;1.10;1.10;;;;;;;;;;4133278;28;20398;-64
2023/10/31 04:03:46;;;;;;;1.05;1.00;;;;;;;;;;4128563;28;20062;-65
2023/10/31 04:05:47;;;;;;;1.30;1.00;;;;;;;;;;4127931;28;20135;-64
2023/10/31 04:07:49;;;;;;;1.00;1.00;;;;;;;;;;4117866;28;20038;-64
2023/10/31 04:09:51;;;;;;;0.95;0.95;;;;;;;;;;4130986;28;20447;-63
2023/10/31 04:11:52;;;;;;;0.90;0.90;;;;;;;;;;4133970;28;20121;-63
2023/10/31 04:13:54;;;;;;;1.00;1.00;;;;;;;;;;4133865;28;20570;-63
2023/10/31 04:15:56;;;;;;;4.15;1.05;;;;;;;;;;4133614;28;20137;-63
2023/10/31 04:17:58;;;;;;;1.73;0.90;;;;;;;;;;4133904;28;20544;-64
2023/10/31 04:19:59;;;;;;;1.00;1.00;;;;;;;;;;4133868;28;20048;-63
2023/10/31 04:22:01;;;;;;;1.00;1.00;;;;;;;;;;4133501;28;20051;-63
2023/10/31 04:24:03;;;;;;;3.08;1.00;;;;;;;;;;4133474;28;20045;-64
2023/10/31 04:26:05;;;;;;;0.95;0.95;;;;;;;;;;4133846;28;20038;-64
2023/10/31 04:28:07;;;;;;;1.20;1.20;;;;;;;;;;4133710;28;20038;-64
2023/10/31 04:30:09;;;;;;;1.00;1.00;;;;;;;;;;4133692;28;20038;-63
2023/10/31 04:32:15;;;;;;;2.58;1.00;;;;;;;;;;4133437;28;20062;-64
2023/10/31 04:34:17;;;;;;;0.90;0.90;;;;;;;;;;4133390;28;20038;-63
2023/10/31 04:36:18;;;;;;;0.98;0.98;;;;;;;;;;4133599;28;20046;-63
2023/10/31 04:38:20;;;;;;;1.17;1.17;;;;;;;;;;4120521;28;20042;-63
2023/10/31 04:40:22;;;;;;;0.80;0.80;;;;;;;;;;4133277;28;20381;-63
2023/10/31 04:42:23;;;;;;;1.58;0.80;;;;;;;;;;4133168;28;20077;-63
2023/10/31 04:44:25;;;;;;;1.13;0.87;;;;;;;;;;4133628;28;20047;-63
2023/10/31 04:46:27;;;;;;;1.13;1.13;;;;;;;;;;4133142;28;20289;-64
2023/10/31 04:48:29;;;;;;;1.30;0.90;;;;;;;;;;4133128;28;20047;-63
2023/10/31 04:50:30;;;;;;;1.00;1.00;;;;;;;;;;4133301;28;20042;-63
2023/10/31 04:52:32;;;;;;;0.90;0.90;;;;;;;;;;4133244;28;20096;-63
2023/10/31 04:54:34;;;;;;;1.13;0.90;;;;;;;;;;4133245;28;20043;-62
2023/10/31 04:56:36;;;;;;;0.90;0.90;;;;;;;;;;4133242;28;20126;-64
2023/10/31 04:58:37;;;;;;;1.00;1.00;;;;;;;;;;4133207;28;20065;-63
2023/10/31 05:00:40;;;;;;;1.45;1.00;;;;;;;;;;4115557;28;20089;-63
2023/10/31 05:02:41;;;;;;;1.00;1.00;;;;;;;;;;4121630;28;20234;-63
2023/10/31 05:04:43;;;;;;;0.90;0.90;;;;;;;;;;4116156;28;20057;-64
2023/10/31 05:06:45;;;;;;;0.90;0.90;;;;;;;;;;4117027;28;20395;-64
2023/10/31 05:08:47;;;;;;;0.90;0.90;;;;;;;;;;4121188;28;20506;-64
2023/10/31 05:10:50;;;;;;;1.75;1.00;;;;;;;;;;4133004;28;20066;-64
2023/10/31 05:12:52;;;;;;;1.63;1.00;;;;;;;;;;4133042;28;20038;-65
2023/10/31 05:14:54;;;;;;;1.83;1.20;;;;;;;;;;4133000;28;20819;-65
2023/10/31 05:16:56;;;;;;;3.85;1.20;;;;;;;;;;4132611;28;20042;-65
2023/10/31 05:19:04;;;;;;;1.27;1.10;;;;;;;;;;4132839;28;20460;-65
2023/10/31 05:21:06;;;;;;;1.73;1.63;;;;;;;;;;4115382;28;20043;-65
2023/10/31 05:23:08;;;;;;;1.00;1.00;;;;;;;;;;4122596;28;20158;-64
2023/10/31 05:25:10;;;;;;;1.65;1.00;;;;;;;;;;4131278;28;20035;-63
2023/10/31 05:27:11;;;;;;;1.58;1.00;;;;;;;;;;4126445;28;20039;-63
2023/10/31 05:29:13;;;;;;;1.20;1.20;;;;;;;;;;4124311;28;20035;-64
2023/10/31 05:31:15;;;;;;;1.08;1.08;;;;;;;;;;4128931;28;20292;-64
2023/10/31 05:33:17;;;;;;;1.27;1.27;;;;;;;;;;4135678;28;20033;-64
2023/10/31 05:35:19;;;;;;;1.33;1.00;;;;;;;;;;4132634;28;20066;-64
2023/10/31 05:37:21;;;;;;;0.93;0.93;;;;;;;;;;4132471;28;20494;-64
2023/10/31 05:39:22;;;;;;;2.77;1.30;;;;;;;;;;4132372;28;20113;-64
2023/10/31 05:41:24;;;;;;;2.83;1.93;;;;;;;;;;4132338;28;20292;-64
2023/10/31 05:43:26;;;;;;;1.10;1.10;;;;;;;;;;4132357;28;20673;-64
2023/10/31 05:45:27;;;;;;;1.10;1.10;;;;;;;;;;4132374;28;20316;-64
2023/10/31 05:47:29;;;;;;;1.00;1.00;;;;;;;;;;4120278;28;20300;-64
2023/10/31 05:49:31;;;;;;;1.90;1.30;;;;;;;;;;4123583;28;20039;-64
2023/10/31 05:51:33;;;;;;;2.22;1.20;;;;;;;;;;4132380;28;20124;-64
2023/10/31 05:53:35;;;;;;;4.75;1.83;;;;;;;;;;4132232;28;20490;-64
2023/10/31 05:55:39;;;;;;;2.10;1.10;;;;;;;;;;4132024;28;20053;-64
2023/10/31 05:57:41;;;;;;;1.55;1.40;;;;;;;;;;4131537;28;20121;-64
2023/10/31 05:59:43;;;;;;;6.13;1.73;;;;;;;;;;4123038;28;20108;-64
2023/10/31 06:01:45;;;;;;;4.80;1.25;;;;;;;;;;4132188;28;20101;-64
2023/10/31 06:03:47;;;;;;;2.95;1.23;;;;;;;;;;4114500;28;20094;-64
2023/10/31 06:05:49;;;;;;;1.48;1.38;;;;;;;;;;4131853;28;20109;-64
2023/10/31 06:07:50;;;;;;;5.15;1.17;;;;;;;;;;4131969;28;20088;-64
2023/10/31 06:09:52;;;;;;;2.88;1.20;;;;;;;;;;4132030;28;20469;-64
2023/10/31 06:11:54;;;;;;;1.73;1.40;;;;;;;;;;4132121;28;20121;-64
2023/10/31 06:13:55;;;;;;;1.15;1.10;;;;;;;;;;4130628;28;20121;-64
2023/10/31 06:16:00;;;;;;;2.08;1.42;;;;;;;;;;4130799;28;20454;-64
2023/10/31 06:18:03;;;;;;;4.65;1.73;;;;;;;;;;4121488;28;20048;-70
2023/10/31 06:20:06;;;;;;;2.22;1.10;;;;;;;;;;4126695;28;20046;-69
2023/10/31 06:22:08;;;;;;;7.50;2.50;;;;;;;;;;4131985;28;20117;-69
2023/10/31 06:24:11;;;;;;;3.95;1.50;;;;;;;;;;4131737;28;20066;-69
2023/10/31 06:26:13;;;;;;;3.00;1.25;;;;;;;;;;4131938;28;20038;-69
2023/10/31 06:28:14;;;;;;;2.22;1.40;;;;;;;;;;4131612;28;20046;-69
2023/10/31 06:30:16;;;;;;;1.27;1.20;;;;;;;;;;4134430;28;20046;-70
2023/10/31 06:32:29;;;;;;;2.33;1.38;;;;;;;;;;4131784;28;20042;-70
2023/10/31 06:34:30;;;;;;;4.03;1.25;;;;;;;;;;4131787;28;20097;-70
2023/10/31 06:36:32;;;;;;;2.25;1.35;;;;;;;;;;4121605;28;20043;-69
2023/10/31 06:38:34;;;;;;;2.90;1.17;;;;;;;;;;4127158;28;20050;-69
2023/10/31 06:40:35;;;;;;;1.43;1.33;;;;;;;;;;4126218;28;20038;-69
2023/10/31 06:42:37;;;;;;;6.40;1.50;;;;;;;;;;4130566;28;20291;-69
2023/10/31 06:44:39;;;;;;;3.80;1.40;;;;;;;;;;4131678;28;20101;-69
2023/10/31 06:46:40;;;;;;;2.35;1.10;;;;;;;;;;4124513;28;20380;-70
2023/10/31 06:48:42;;;;;;;1.17;1.10;;;;;;;;;;4120833;28;20371;-70
2023/10/31 06:50:44;;;;;;;4.57;1.20;;;;;;;;;;4115267;28;20297;-69
2023/10/31 06:52:45;;;;;;;3.78;1.15;;;;;;;;;;4115394;28;20630;-70
2023/10/31 06:54:47;;;;;;;1.63;1.00;;;;;;;;;;4115156;28;20054;-70
2023/10/31 06:56:49;;;;;;;1.42;1.00;;;;;;;;;;4115509;28;20129;-69
2023/10/31 06:58:51;;;;;;;1.63;1.03;;;;;;;;;;4115449;28;20558;-70
2023/10/31 07:00:52;;;;;;;3.42;1.10;;;;;;;;;;4115392;28;20297;-70
2023/10/31 07:02:54;;;;;;;1.83;1.42;;;;;;;;;;4115074;28;20047;-70
2023/10/31 07:04:56;;;;;;;3.72;1.50;;;;;;;;;;4115166;28;20084;-70
2023/10/31 07:06:58;;;;;;;1.33;1.02;;;;;;;;;;4115507;28;20047;-70
2023/10/31 07:09:04;;;;;;;4.78;1.10;;;;;;;;;;4121455;28;20031;-70
2023/10/31 07:11:06;;;;;;;1.85;1.23;;;;;;;;;;4131595;28;20038;-70
2023/10/31 07:13:08;;;;;;;3.45;1.13;;;;;;;;;;4131262;28;20034;-70
2023/10/31 07:15:09;;;;;;;1.63;1.20;;;;;;;;;;4131467;28;20042;-70
2023/10/31 07:17:11;;;;;;;2.25;1.10;;;;;;;;;;4131605;28;20049;-71
2023/10/31 07:19:13;;;;;;;1.00;1.00;;;;;;;;;;4131178;28;20069;-70
2023/10/31 07:21:15;;;;;;;6.20;1.10;;;;;;;;;;4131527;28;20057;-70
2023/10/31 07:23:19;;;;;;;3.00;0.90;;;;;;;;;;4131437;28;20096;-70
2023/10/31 07:25:21;;;;;;;1.15;0.90;;;;;;;;;;4129910;28;20046;-71
2023/10/31 07:27:22;;;;;;;2.60;0.90;;;;;;;;;;4118116;28;20047;-71
2023/10/31 07:29:24;;;;;;;2.35;1.17;;;;;;;;;;4134566;28;20078;-70
2023/10/31 07:31:26;;;;;;;1.65;1.45;;;;;;;;;;4134208;28;20125;-70
2023/10/31 07:33:28;;;;;;;5.25;1.33;;;;;;;;;;4134471;28;20041;-71
2023/10/31 07:35:32;;;;;;;2.67;1.00;;;;;;;;;;4134358;28;20097;-71
2023/10/31 07:37:36;;;;;;;2.78;1.27;;;;;;;;;;4134449;28;20434;-71
2023/10/31 07:39:38;;;;;;;1.85;1.10;;;;;;;;;;4133959;28;20045;-72
2023/10/31 07:41:39;;;;;;;1.15;1.15;;;;;;;;;;4134228;28;20034;-72
2023/10/31 07:43:54;;;;;;;2.05;1.00;;;;;;;;;;4134028;28;20279;-72
2023/10/31 07:45:56;;;;;;;1.08;1.08;;;;;;;;;;4134056;28;20042;-72
2023/10/31 07:47:57;;;;;;;2.15;0.90;;;;;;;;;;4118211;28;20117;-73
2023/10/31 07:49:59;;;;;;;2.50;1.00;;;;;;;;;;4117860;28;20057;-71
2023/10/31 07:52:01;;;;;;;2.67;1.00;;;;;;;;;;4117669;28;20410;-72
2023/10/31 07:54:03;;;;;;;1.60;0.98;;;;;;;;;;4117899;28;20039;-71
2023/10/31 07:56:05;;;;;;;1.13;0.80;;;;;;;;;;4117947;28;20419;-72
2023/10/31 07:58:06;;;;;;;1.63;0.90;;;;;;;;;;4117775;28;20077;-73
2023/10/31 08:00:12;;;;;;;1.65;1.00;;;;;;;;;;4128073;28;20078;-73
2023/10/31 08:02:14;;;;;;;2.38;0.90;;;;;;;;;;4133690;28;20042;-72
2023/10/31 08:04:16;;;;;;;1.02;0.90;;;;;;;;;;4133814;28;20035;-72
2023/10/31 08:06:18;;;;;;;;;;;;;;;;;;4134109;28;20085;-71
2023/10/31 08:08:19;;;;;;;0.90;0.90;;;;;;;;;;4133543;28;19922;-72
2023/10/31 08:10:21;;;;;;;1.00;1.00;;;;;;;;;;4133576;28;20117;-71
2023/10/31 08:12:23;;;;;;;1.98;1.88;;;;;;;;;;4133928;28;20039;-72
2023/10/31 08:14:25;;;;;;;3.83;0.80;;;;;;;;;;4133825;28;20050;-72
2023/10/31 08:16:27;;;;;;;1.20;1.10;;;;;;;;;;4133693;28;20089;-72
2023/10/31 08:18:29;;;;;;;;;;;;;;;;;;4134008;28;20046;-71
2023/10/31 08:20:33;;;;;;;2.58;1.08;;;;;;;;;;4133492;28;19921;-71
2023/10/31 08:22:36;;;;;;;2.72;0.95;;;;;;;;;;4119237;28;20146;-72
2023/10/31 08:24:38;;;;;;;2.72;1.10;;;;;;;;;;4133299;28;20042;-72
2023/10/31 08:26:40;;;;;;;4.30;1.00;;;;;;;;;;4133417;28;20489;-72
2023/10/31 08:28:41;;;;;;;1.70;0.90;;;;;;;;;;4133479;28;20034;-73
2023/10/31 08:30:43;;;;;;;2.70;1.00;;;;;;;;;;4133602;28;20118;-71
2023/10/31 08:32:45;;;;;;;2.85;1.30;;;;;;;;;;4133443;28;20060;-72
2023/10/31 08:34:47;;;;;;;2.50;1.15;;;;;;;;;;4133242;28;20414;-72
2023/10/31 08:36:48;;;;;;;4.88;1.10;;;;;;;;;;4133517;28;20038;-72
2023/10/31 08:38:53;;;;;;;2.10;1.65;;;;;;;;;;4132067;28;20046;-71
2023/10/31 08:40:55;;;;;;;1.58;1.10;;;;;;;;;;4133055;28;20051;-71
2023/10/31 08:42:57;;;;;;;3.35;1.20;;;;;;;;;;4133219;28;20577;-72
2023/10/31 08:44:58;;;;;;;3.38;1.23;;;;;;;;;;4133068;28;20046;-72
2023/10/31 08:47:00;;;;;;;2.90;1.13;;;;;;;;;;4124662;28;20043;-72
2023/10/31 08:49:02;;;;;;;4.85;1.10;;;;;;;;;;4117017;28;20551;-72
2023/10/31 08:51:04;;;;;;;2.35;1.55;;;;;;;;;;4117010;28;20038;-70
2023/10/31 08:53:06;;;;;;;3.90;1.20;;;;;;;;;;4115684;28;20452;-70
2023/10/31 08:55:08;;;;;;;3.05;1.15;;;;;;;;;;4117109;28;20398;-70
2023/10/31 08:57:09;;;;;;;3.05;1.30;;;;;;;;;;4117017;28;20125;-71
2023/10/31 08:59:14;;;;;;;2.55;1.40;;;;;;;;;;4119849;28;20078;-70
2023/10/31 09:01:19;;;;;;;2.95;1.20;;;;;;;;;;4133134;28;20081;-70
2023/10/31 09:03:20;;;;;;;4.57;1.10;;;;;;;;;;4132819;28;20105;-70
2023/10/31 09:05:22;;;;;;;3.05;1.13;;;;;;;;;;4132621;28;20121;-72
2023/10/31 09:07:24;;;;;;;4.55;1.13;;;;;;;;;;4133075;28;20375;-72
2023/10/31 09:09:26;;;;;;;2.17;1.20;;;;;;;;;;4132606;28;20049;-71
2023/10/31 09:11:27;;;;;;;3.00;1.10;;;;;;;;;;4132806;28;20049;-72
2023/10/31 09:13:30;;;;;;;1.42;1.10;;;;;;;;;;4132727;28;20042;-72
2023/10/31 09:15:33;;;;;;;4.78;1.10;;;;;;;;;;4132626;28;20046;-72
2023/10/31 09:17:34;;;;;;;3.75;1.20;;;;;;;;;;4132709;28;20050;-72
2023/10/31 09:19:36;;;;;;;1.90;1.67;;;;;;;;;;4135687;28;20042;-72
2023/10/31 09:21:38;;;;;;;5.05;1.50;;;;;;;;;;4115599;28;20042;-72
2023/10/31 09:23:40;;;;;;;3.33;1.17;;;;;;;;;;4132639;28;20578;-72
2023/10/31 09:25:42;;;;;;;3.53;1.20;;;;;;;;;;4132453;28;20127;-71
2023/10/31 09:27:44;;;;;;;7.30;2.38;;;;;;;;;;4132505;28;20042;-72
2023/10/31 09:29:46;;;;;;;7.60;1.93;;;;;;;;;;4132478;28;20042;-71
2023/10/31 09:31:47;;;;;;;5.88;1.88;;;;;;;;;;4132714;28;20289;-71
2023/10/31 09:33:49;;;;;;;3.60;1.52;;;;;;;;;;4132387;28;20045;-71
2023/10/31 09:35:51;;;;;;;5.18;1.20;;;;;;;;;;4132435;28;20490;-71
2023/10/31 09:37:53;;;;;;;7.50;1.50;;;;;;;;;;4132310;28;20117;-71
2023/10/31 09:39:55;;;;;;;2.35;1.00;;;;;;;;;;4132320;28;20078;-71
2023/10/31 09:41:56;;;;;;;1.13;1.00;;;;;;;;;;4132401;28;20101;-71
2023/10/31 09:43:58;;;;;;;3.88;1.67;;;;;;;;;;4103804;28;20051;-71
2023/10/31 09:46:01;;;;;;;4.13;1.20;;;;;;;;;;4115925;28;20042;-71
2023/10/31 09:48:03;;;;;;;5.30;1.20;;;;;;;;;;4116057;28;20412;-72
2023/10/31 09:50:05;;;;;;;5.60;1.55;;;;;;;;;;4116074;28;20074;-72
2023/10/31 09:52:07;;;;;;;1.58;1.25;;;;;;;;;;4116023;28;20074;-73
2023/10/31 09:54:09;;;;;;;4.00;1.20;;;;;;;;;;4115897;28;20408;-71
2023/10/31 09:56:13;;;;;;;4.82;1.15;;;;;;;;;;4116024;28;20043;-72
2023/10/31 09:58:15;;;;;;;2.90;1.42;;;;;;;;;;4116031;28;20050;-73
2023/10/31 10:00:17;;;;;;;5.38;1.38;;;;;;;;;;4127375;28;20037;-72
2023/10/31 10:02:19;;;;;;;;;;;;;;;;;;4115180;28;20121;-72
2023/10/31 10:04:21;;;;;;;6.35;1.30;;;;;;;;;;4132019;28;19922;-73
2023/10/31 10:06:23;;;;;;;2.55;1.20;;;;;;;;;;4131802;28;20066;-73
2023/10/31 10:08:25;;;;;;;4.72;1.38;;;;;;;;;;4132059;28;20042;-74
2023/10/31 10:10:29;;;;;;;4.45;1.55;;;;;;;;;;4132061;28;20057;-73
2023/10/31 10:12:31;;;;;;;10.18;2.17;;;;;;;;;;4131850;28;20089;-71
2023/10/31 10:14:33;;;;;;;6.28;1.88;;;;;;;;;;4134823;28;20038;-73
2023/10/31 10:16:39;;;;;;;6.03;1.30;;;;;;;;;;4131693;28;20042;-71
2023/10/31 10:18:41;;;;;;;4.03;1.27;;;;;;;;;;4131886;28;20042;-71
2023/10/31 10:20:54;;;;;;;3.75;1.10;;;;;;;;;;4131759;28;20038;-71
2023/10/31 10:23:02;;;;;;;4.40;1.15;;;;;;;;;;4131613;28;20292;-74
2023/10/31 10:25:06;;;;;;;5.15;1.15;;;;;;;;;;4131627;28;20467;-72
2023/10/31 10:27:11;;;;;;;5.13;1.20;;;;;;;;;;4131857;28;20046;-72
2023/10/31 10:29:13;;;;;;;4.32;1.38;;;;;;;;;;4131923;28;20038;-71
2023/10/31 10:31:15;;;;;;;10.07;1.42;;;;;;;;;;4131533;28;20038;-69
2023/10/31 10:33:17;;;;;;;6.13;2.00;;;;;;;;;;4131290;28;20161;-70
2023/10/31 10:35:19;;;;;;;4.88;1.73;;;;;;;;;;4131502;28;20038;-70
2023/10/31 10:37:21;;;;;;;4.25;1.25;;;;;;;;;;4131476;28;20046;-70
2023/10/31 10:39:23;;;;;;;3.95;1.52;;;;;;;;;;4127350;28;20039;-70
2023/10/31 10:41:28;;;;;;;3.92;1.20;;;;;;;;;;4115762;28;20039;-70
2023/10/31 10:43:34;;;;;;;8.05;2.13;;;;;;;;;;4115388;28;20046;-71
2023/10/31 10:45:38;;;;;;;12.60;1.70;;;;;;;;;;4115441;28;20035;-70
2023/10/31 10:47:40;;;;;;;7.03;1.10;;;;;;;;;;4115162;28;20043;-70
2023/10/31 10:49:43;;;;;;;6.57;1.63;;;;;;;;;;4115606;28;20046;-71
2023/10/31 10:51:54;;;;;;;4.10;1.67;;;;;;;;;;4115610;28;20070;-71
2023/10/31 10:53:57;;;;;;;9.80;1.33;;;;;;;;;;4115589;28;20039;-70
2023/10/31 10:56:07;;;;;;;7.93;1.23;;;;;;;;;;4123095;28;20121;-70
2023/10/31 10:58:13;;;;;;;7.05;1.00;;;;;;;;;;4130621;28;20069;-70
2023/10/31 11:00:16;;;;;;;3.75;1.60;;;;;;;;;;4129780;28;20121;-72
2023/10/31 11:02:18;;;;;;;3.85;1.10;;;;;;;;;;4126518;28;20062;-69
2023/10/31 11:04:20;;;;;;;5.57;1.48;;;;;;;;;;4131375;28;20569;-72
2023/10/31 11:06:23;;;;;;;3.63;1.00;;;;;;;;;;4129858;28;20050;-72
2023/10/31 11:08:25;;;;;;;6.65;1.67;;;;;;;;;;4133198;28;20490;-72
2023/10/31 11:10:30;;;;;;;8.05;1.40;;;;;;;;;;4133819;28;20046;-72
2023/10/31 11:12:32;;;;;;;6.82;1.25;;;;;;;;;;4131432;28;20125;-71
2023/10/31 11:14:35;;;;;;;1.88;0.90;;;;;;;;;;4124291;28;20034;-71
2023/10/31 11:16:45;;;;;;;7.38;1.45;;;;;;;;;;4134648;28;20038;-70
2023/10/31 11:18:47;;;;;;;6.30;1.02;;;;;;;;;;4134379;28;20101;-72
2023/10/31 11:20:49;;;;;;;6.97;1.42;;;;;;;;;;4131806;28;20034;-71
2023/10/31 11:22:56;;;;;;;2.50;1.20;;;;;;;;;;4134416;28;20046;-71
2023/10/31 11:24:59;;;;;;;5.90;1.40;;;;;;;;;;4134470;28;20043;-71
2023/10/31 11:27:02;;;;;;;6.25;1.85;;;;;;;;;;4133252;28;20062;-71
2023/10/31 11:29:07;;;;;;;2.88;1.25;;;;;;;;;;4134501;28;20042;-71
2023/10/31 11:31:08;;;;;;;3.65;1.35;;;;;;;;;;4133535;28;20081;-71
2023/10/31 11:33:14;;;;;;;3.33;1.10;;;;;;;;;;4133599;28;20038;-71
2023/10/31 11:35:17;;;;;;;7.28;1.42;;;;;;;;;;4127920;28;20038;-71
2023/10/31 11:37:26;;;;;;;8.32;1.27;;;;;;;;;;4126726;28;20038;-72
2023/10/31 11:39:28;;;;;;;4.95;1.60;;;;;;;;;;4133531;28;20061;-71
2023/10/31 11:41:32;;;;;;;5.75;1.55;;;;;;;;;;4132765;28;20103;-71
2023/10/31 11:43:40;;;;;;;5.70;1.63;;;;;;;;;;4130317;28;20069;-70
2023/10/31 11:45:44;;;;;;;4.07;1.30;;;;;;;;;;4115136;28;20039;-70
2023/10/31 11:47:46;;;;;;;2.10;1.30;;;;;;;;;;4134009;28;20046;-70
2023/10/31 11:49:48;;;;;;;2.35;0.95;;;;;;;;;;4127859;28;20045;-70
2023/10/31 11:51:50;;;;;;;8.10;1.42;;;;;;;;;;4130277;28;20038;-70
2023/10/31 11:53:52;;;;;;;9.95;3.00;;;;;;;;;;4131987;28;20050;-69
2023/10/31 11:55:56;;;;;;;4.40;1.27;;;;;;;;;;4130752;28;20100;-70
2023/10/31 11:58:11;;;;;;;2.55;1.00;;;;;;;;;;4131128;28;20046;-70
2023/10/31 12:00:20;;;;;;;4.85;1.15;;;;;;;;;;4126595;28;20089;-69
2023/10/31 12:02:22;;;;;;;9.25;2.08;;;;;;;;;;4126023;28;20085;-70
2023/10/31 12:04:24;;;;;;;6.93;1.10;;;;;;;;;;4128058;28;20042;-70
2023/10/31 12:06:26;;;;;;;3.75;0.95;;;;;;;;;;4126533;28;20050;-70
2023/10/31 12:08:28;;;;;;;5.97;1.13;;;;;;;;;;4129881;28;20038;-70
2023/10/31 12:10:30;;;;;;;5.20;1.45;;;;;;;;;;4133109;28;20030;-70
2023/10/31 12:12:32;;;;;;;2.58;1.00;;;;;;;;;;4132745;28;20096;-69
2023/10/31 12:14:34;;;;;;;3.55;1.75;;;;;;;;;;4131077;28;20046;-69